Time;durP1;ratioP1;P1;durP2;ratioP2;P2;SDS_P1;SDS_P2;PMS_P1;PMS_P2;Temp;Humidity;BMP_temperature;BMP_pressure;BME280_temperature;BME280_humidity;BME280_pressure;Samples;Min_cycle;Max_cycle;Signal;HPM_P1;HPM_P2
2021/12/03 00:02:22;;;;;;;14.25;7.18;;;2.50;99.90;;;;;;4995003;28;20081;-80
2021/12/03 00:04:47;;;;;;;14.27;5.93;;;2.50;99.90;;;;;;4996289;28;20094;-82
2021/12/03 00:07:14;;;;;;;16.20;6.55;;;2.50;99.90;;;;;;4996242;28;20033;-82
2021/12/03 00:09:39;;;;;;;10.95;5.80;;;2.50;99.90;;;;;;4994357;28;20026;-81
2021/12/03 00:12:06;;;;;;;10.50;5.85;;;2.50;99.90;;;;;;4995350;28;20471;-81
2021/12/03 00:14:35;;;;;;;9.70;5.10;;;2.50;99.90;;;;;;4995985;28;20018;-80
2021/12/03 00:17:02;;;;;;;10.45;6.15;;;2.50;99.90;;;;;;4994891;28;20026;-82
2021/12/03 00:19:27;;;;;;;10.93;5.82;;;2.50;99.90;;;;;;4994576;28;20026;-82
2021/12/03 00:21:53;;;;;;;8.82;5.28;;;2.50;99.90;;;;;;4995873;28;20027;-81
2021/12/03 00:24:19;;;;;;;9.60;5.85;;;2.50;99.90;;;;;;4995067;28;20027;-82
2021/12/03 00:26:45;;;;;;;18.25;5.50;;;2.50;99.90;;;;;;4994308;28;20033;-81
2021/12/03 00:29:10;;;;;;;10.95;6.18;;;2.50;99.90;;;;;;4996252;28;20097;-82
2021/12/03 00:31:36;;;;;;;10.63;6.35;;;2.50;99.90;;;;;;4995661;28;20045;-81
2021/12/03 00:34:02;;;;;;;9.77;5.43;;;2.50;99.90;;;;;;4995679;28;20117;-82
2021/12/03 00:36:29;;;;;;;12.27;6.90;;;2.50;99.90;;;;;;4995278;28;20018;-82
2021/12/03 00:38:58;;;;;;;9.68;6.35;;;2.50;99.90;;;;;;4994567;28;20023;-81
2021/12/03 00:41:25;;;;;;;13.15;6.20;;;2.50;99.90;;;;;;4995348;28;20034;-82
2021/12/03 00:43:53;;;;;;;12.65;6.50;;;2.50;99.90;;;;;;4993838;28;20029;-81
2021/12/03 00:46:20;;;;;;;10.25;7.13;;;2.50;99.90;;;;;;4994555;28;20459;-81
2021/12/03 00:48:48;;;;;;;11.18;6.80;;;2.50;99.90;;;;;;4994602;28;20022;-82
2021/12/03 00:51:15;;;;;;;12.63;6.95;;;2.50;99.90;;;;;;4994409;28;20451;-81
2021/12/03 00:53:42;;;;;;;12.95;7.13;;;2.50;99.90;;;;;;4994176;28;20037;-82
2021/12/03 00:56:09;;;;;;;9.88;7.03;;;2.50;99.90;;;;;;4993999;28;20037;-82
2021/12/03 00:58:35;;;;;;;12.10;7.03;;;2.60;99.90;;;;;;4995252;28;20026;-81
2021/12/03 01:01:01;;;;;;;11.35;6.93;;;2.50;99.90;;;;;;4995106;28;20094;-82
2021/12/03 01:03:27;;;;;;;11.25;6.63;;;2.50;99.90;;;;;;4993780;28;20022;-81
2021/12/03 01:05:52;;;;;;;12.30;6.63;;;2.60;99.90;;;;;;4994113;28;20046;-81
2021/12/03 01:08:18;;;;;;;12.32;7.97;;;2.50;99.90;;;;;;4995924;28;20463;-82
2021/12/03 01:10:44;;;;;;;17.15;7.18;;;2.50;99.90;;;;;;4993962;28;20038;-82
2021/12/03 01:13:10;;;;;;;9.95;6.63;;;2.50;99.90;;;;;;4993994;28;20014;-81
2021/12/03 01:15:38;;;;;;;12.23;7.80;;;2.50;99.90;;;;;;4996224;28;20118;-82
2021/12/03 01:18:06;;;;;;;16.02;7.75;;;2.50;99.90;;;;;;4994770;28;20030;-82
2021/12/03 01:20:33;;;;;;;12.50;7.60;;;2.40;99.90;;;;;;4994805;28;20061;-81
2021/12/03 01:23:00;;;;;;;17.27;7.30;;;2.50;99.90;;;;;;4994110;28;20028;-82
2021/12/03 01:25:26;;;;;;;14.25;8.65;;;2.50;99.90;;;;;;4995316;28;20104;-83
2021/12/03 01:27:53;;;;;;;11.73;7.55;;;2.50;99.90;;;;;;4994237;28;20019;-82
2021/12/03 01:30:21;;;;;;;13.43;8.07;;;2.40;99.90;;;;;;4993734;28;20390;-80
2021/12/03 01:32:48;;;;;;;13.20;8.95;;;2.50;99.90;;;;;;4995225;28;20023;-81
2021/12/03 01:35:14;;;;;;;12.43;8.00;;;2.50;99.90;;;;;;4993853;28;20069;-81
2021/12/03 01:37:41;;;;;;;12.43;7.90;;;2.50;99.90;;;;;;4993532;28;20027;-81
2021/12/03 01:40:10;;;;;;;17.00;7.90;;;2.50;99.90;;;;;;4993031;28;20038;-82
2021/12/03 01:42:38;;;;;;;11.82;8.20;;;2.50;99.90;;;;;;4995176;28;20395;-81
2021/12/03 01:45:07;;;;;;;10.43;7.43;;;2.50;99.90;;;;;;4993354;28;20054;-81
2021/12/03 01:47:33;;;;;;;17.35;7.97;;;2.50;99.90;;;;;;4995086;28;20041;-81
2021/12/03 01:49:58;;;;;;;14.32;8.20;;;2.50;99.90;;;;;;4994862;28;20419;-81
2021/12/03 01:52:24;;;;;;;10.85;7.47;;;2.50;99.90;;;;;;4993946;28;20023;-81
2021/12/03 01:54:50;;;;;;;14.65;7.82;;;2.60;99.90;;;;;;4994412;28;20025;-80
2021/12/03 01:57:17;;;;;;;12.18;7.68;;;2.60;99.90;;;;;;4993425;28;20042;-81
2021/12/03 01:59:43;;;;;;;11.48;7.50;;;2.60;99.90;;;;;;4994186;28;20066;-81
2021/12/03 02:02:09;;;;;;;12.32;7.57;;;2.60;99.90;;;;;;4992969;28;20451;-82
2021/12/03 02:04:35;;;;;;;11.75;7.63;;;2.60;99.90;;;;;;4994299;28;20513;-81
2021/12/03 02:07:01;;;;;;;16.63;8.93;;;2.60;99.90;;;;;;4992628;28;20034;-81
2021/12/03 02:09:27;;;;;;;12.90;7.75;;;2.60;99.90;;;;;;4994204;28;20018;-81
2021/12/03 02:11:53;;;;;;;14.15;7.80;;;2.70;99.90;;;;;;4993753;28;20056;-81
2021/12/03 02:14:20;;;;;;;14.25;6.82;;;2.60;99.90;;;;;;4992898;28;20485;-82
2021/12/03 02:16:46;;;;;;;15.05;8.93;;;2.60;99.90;;;;;;4992303;28;20037;-82
2021/12/03 02:19:13;;;;;;;15.02;7.97;;;2.60;99.90;;;;;;4993688;28;20049;-82
2021/12/03 02:21:39;;;;;;;19.98;9.15;;;2.60;99.90;;;;;;4992855;28;20033;-82
2021/12/03 02:24:05;;;;;;;19.33;9.30;;;2.70;99.90;;;;;;4993715;28;20394;-82
2021/12/03 02:26:31;;;;;;;12.40;8.02;;;2.70;99.90;;;;;;4992703;28;20022;-83
2021/12/03 02:28:57;;;;;;;17.98;8.63;;;2.70;99.90;;;;;;4993807;28;20109;-82
2021/12/03 02:31:24;;;;;;;16.95;8.15;;;2.80;99.90;;;;;;4992586;28;20360;-82
2021/12/03 02:33:51;;;;;;;17.25;8.93;;;2.80;99.90;;;;;;4995298;28;20035;-82
2021/12/03 02:36:18;;;;;;;18.77;10.18;;;2.80;99.90;;;;;;4996814;28;20029;-82
2021/12/03 02:38:45;;;;;;;16.60;9.88;;;2.80;99.90;;;;;;4997406;28;20089;-83
2021/12/03 02:41:11;;;;;;;17.58;9.10;;;2.70;99.90;;;;;;4996383;28;20034;-82
2021/12/03 02:43:38;;;;;;;18.38;9.13;;;2.70;99.90;;;;;;4997068;28;20018;-82
2021/12/03 02:46:04;;;;;;;18.83;10.00;;;2.70;99.90;;;;;;4998099;28;20084;-83
2021/12/03 02:48:31;;;;;;;18.75;9.57;;;2.70;99.90;;;;;;4996239;28;20030;-83
2021/12/03 02:50:58;;;;;;;18.95;9.52;;;2.70;99.90;;;;;;4998085;28;20466;-82
2021/12/03 02:53:23;;;;;;;19.55;9.48;;;2.70;99.90;;;;;;4997551;28;20026;-82
2021/12/03 02:55:50;;;;;;;16.08;9.15;;;2.70;99.90;;;;;;4997438;28;20370;-82
2021/12/03 02:58:16;;;;;;;14.95;8.98;;;2.70;99.90;;;;;;4996054;28;20038;-83
2021/12/03 03:00:43;;;;;;;16.23;8.90;;;2.80;99.90;;;;;;4996959;28;20414;-82
2021/12/03 03:03:09;;;;;;;16.48;7.70;;;2.80;99.90;;;;;;4995951;28;20018;-83
2021/12/03 03:05:35;;;;;;;15.82;9.15;;;2.80;99.90;;;;;;4995727;28;20557;-82
2021/12/03 03:08:00;;;;;;;16.83;9.52;;;2.80;99.90;;;;;;4996859;28;20050;-82
2021/12/03 03:10:30;;;;;;;19.20;10.25;;;2.70;99.90;;;;;;4997934;28;20069;-82
2021/12/03 03:12:58;;;;;;;18.30;9.32;;;2.70;99.90;;;;;;4997124;28;20022;-82
2021/12/03 03:15:23;;;;;;;17.40;10.00;;;2.70;99.90;;;;;;4996488;28;20447;-82
2021/12/03 03:17:50;;;;;;;19.85;10.40;;;2.70;99.90;;;;;;4995629;28;20030;-82
2021/12/03 03:20:16;;;;;;;21.88;10.07;;;2.80;99.90;;;;;;4995243;28;20023;-82
2021/12/03 03:22:43;;;;;;;20.00;9.85;;;2.80;99.90;;;;;;4997350;28;20053;-81
2021/12/03 03:25:12;;;;;;;19.88;10.45;;;2.80;99.90;;;;;;4997328;28;20114;-83
2021/12/03 03:27:39;;;;;;;18.10;10.85;;;2.80;99.90;;;;;;4996615;28;20025;-82
2021/12/03 03:30:09;;;;;;;17.15;9.38;;;2.80;99.90;;;;;;4996895;28;20034;-82
2021/12/03 03:32:35;;;;;;;20.58;11.25;;;2.80;99.90;;;;;;4995541;28;20471;-81
2021/12/03 03:35:01;;;;;;;23.23;11.80;;;2.80;99.90;;;;;;4995785;28;20367;-81
2021/12/03 03:37:27;;;;;;;25.40;11.45;;;2.80;99.90;;;;;;4997082;28;20439;-81
2021/12/03 03:39:53;;;;;;;21.90;11.82;;;2.80;99.90;;;;;;4995207;28;20415;-81
2021/12/03 03:42:18;;;;;;;22.25;12.13;;;2.80;99.90;;;;;;4996262;28;20018;-81
2021/12/03 03:44:44;;;;;;;24.80;13.07;;;2.80;99.90;;;;;;4994307;28;20050;-81
2021/12/03 03:47:12;;;;;;;23.02;13.15;;;2.90;99.90;;;;;;4995184;28;20065;-81
2021/12/03 03:49:38;;;;;;;23.25;13.77;;;2.80;99.90;;;;;;4996422;28;20023;-81
2021/12/03 03:52:05;;;;;;;26.70;13.93;;;2.80;99.90;;;;;;4996472;28;20027;-82
2021/12/03 03:54:31;;;;;;;26.25;14.25;;;2.80;99.90;;;;;;4995205;28;20523;-80
2021/12/03 03:56:57;;;;;;;28.33;15.10;;;2.80;99.90;;;;;;4996286;28;20057;-81
2021/12/03 03:59:23;;;;;;;29.23;14.20;;;2.80;99.90;;;;;;4995586;28;20529;-81
2021/12/03 04:01:51;;;;;;;34.38;17.00;;;2.90;99.90;;;;;;4996045;28;20057;-81
2021/12/03 04:04:17;;;;;;;30.88;15.13;;;3.00;99.90;;;;;;4996427;28;20034;-81
2021/12/03 04:06:44;;;;;;;36.53;16.40;;;3.00;99.90;;;;;;4995807;28;20015;-82
2021/12/03 04:09:11;;;;;;;30.15;15.60;;;3.10;99.90;;;;;;4995439;28;20066;-82
2021/12/03 04:11:37;;;;;;;46.95;18.50;;;3.10;99.90;;;;;;4995248;28;20034;-82
2021/12/03 04:14:03;;;;;;;34.42;16.00;;;3.10;99.90;;;;;;4995575;28;20045;-82
2021/12/03 04:16:30;;;;;;;36.53;17.98;;;3.10;99.90;;;;;;4995198;28;20121;-82
2021/12/03 04:18:57;;;;;;;41.85;18.33;;;3.10;99.90;;;;;;4996362;28;20022;-82
2021/12/03 04:21:23;;;;;;;35.95;18.52;;;3.10;99.90;;;;;;4996254;28;20050;-82
2021/12/03 04:23:48;;;;;;;36.03;16.38;;;3.10;99.90;;;;;;4996077;28;20019;-82
2021/12/03 04:26:14;;;;;;;33.35;15.27;;;3.10;99.90;;;;;;4995838;28;20019;-82
2021/12/03 04:28:40;;;;;;;35.58;18.85;;;3.10;99.90;;;;;;4996563;28;20018;-82
2021/12/03 04:31:06;;;;;;;38.58;16.90;;;3.10;99.90;;;;;;4996114;28;20121;-82
2021/12/03 04:33:32;;;;;;;35.65;17.95;;;3.20;99.90;;;;;;4995448;28;20026;-82
2021/12/03 04:35:58;;;;;;;39.45;17.38;;;3.20;99.90;;;;;;4996533;28;20030;-81
2021/12/03 04:38:24;;;;;;;39.38;16.67;;;3.30;99.90;;;;;;4995061;28;20038;-82
2021/12/03 04:40:50;;;;;;;35.70;16.80;;;3.30;99.90;;;;;;4996094;28;20038;-82
2021/12/03 04:43:16;;;;;;;40.25;16.75;;;3.30;99.90;;;;;;4994723;28;20080;-83
2021/12/03 04:45:42;;;;;;;51.10;20.30;;;3.30;99.90;;;;;;4996036;28;20050;-81
2021/12/03 04:48:08;;;;;;;56.42;23.73;;;3.30;99.90;;;;;;4994311;28;20026;-82
2021/12/03 04:50:40;;;;;;;56.22;20.48;;;3.30;99.90;;;;;;4993918;28;20486;-82
2021/12/03 04:53:06;;;;;;;46.53;20.63;;;3.30;99.90;;;;;;4995498;28;20026;-82
2021/12/03 04:55:34;;;;;;;56.75;22.52;;;3.30;99.90;;;;;;4993654;28;20018;-81
2021/12/03 04:58:00;;;;;;;56.63;22.40;;;3.30;99.90;;;;;;4995013;28;20072;-81
2021/12/03 05:00:32;;;;;;;48.55;17.77;;;3.30;99.90;;;;;;4993453;28;20046;-82
2021/12/03 05:02:59;;;;;;;52.33;18.83;;;3.40;99.90;;;;;;4993807;28;20038;-82
2021/12/03 05:05:27;;;;;;;53.67;18.88;;;3.40;99.90;;;;;;4994235;28;20120;-82
2021/12/03 05:07:58;;;;;;;56.40;20.08;;;3.40;99.90;;;;;;4994853;28;20439;-81
2021/12/03 05:10:30;;;;;;;69.30;25.08;;;3.40;99.90;;;;;;4994397;28;20061;-80
2021/12/03 05:13:16;;;;;;;63.55;23.83;;;3.40;99.90;;;;;;4994037;28;20022;-80
2021/12/03 05:15:43;;;;;;;74.95;24.35;;;3.30;99.90;;;;;;4993773;28;20023;-80
2021/12/03 05:18:10;;;;;;;77.40;25.38;;;3.30;99.90;;;;;;4993665;28;20023;-80
2021/12/03 05:20:36;;;;;;;79.90;25.73;;;3.30;99.90;;;;;;4993543;28;20088;-80
2021/12/03 05:23:03;;;;;;;75.22;24.08;;;3.30;99.90;;;;;;4994617;28;20057;-81
2021/12/03 05:25:30;;;;;;;71.00;23.05;;;3.40;99.90;;;;;;4994870;28;20034;-82
2021/12/03 05:27:56;;;;;;;55.13;18.10;;;3.40;99.90;;;;;;4994556;28;20023;-81
2021/12/03 05:30:23;;;;;;;73.90;24.20;;;3.30;99.90;;;;;;4994352;28;20070;-81
2021/12/03 05:32:49;;;;;;;62.92;24.02;;;3.30;99.90;;;;;;4993200;28;20019;-81
2021/12/03 05:35:15;;;;;;;67.50;23.58;;;3.40;99.90;;;;;;4993483;28;20121;-81
2021/12/03 05:37:41;;;;;;;69.38;25.70;;;3.40;99.90;;;;;;4994687;28;20109;-81
2021/12/03 05:40:09;;;;;;;67.70;22.42;;;3.40;99.90;;;;;;4994699;28;20442;-81
2021/12/03 05:42:36;;;;;;;67.97;23.92;;;3.40;99.90;;;;;;4995996;28;20057;-81
2021/12/03 05:45:03;;;;;;;64.82;19.73;;;3.50;99.90;;;;;;4994234;28;20050;-82
2021/12/03 05:47:29;;;;;;;62.35;23.48;;;3.50;99.90;;;;;;4992921;28;20122;-81
2021/12/03 05:49:55;;;;;;;72.03;23.80;;;3.50;99.90;;;;;;4993774;28;20045;-81
2021/12/03 05:52:21;;;;;;;66.03;21.75;;;3.50;99.90;;;;;;4993089;28;20422;-81
2021/12/03 05:54:47;;;;;;;77.30;24.05;;;3.60;99.90;;;;;;4993058;28;20031;-80
2021/12/03 05:57:13;;;;;;;74.32;25.85;;;3.60;99.90;;;;;;4994386;28;20224;-80
2021/12/03 05:59:38;;;;;;;82.85;27.83;;;3.60;99.90;;;;;;4995068;28;20125;-80
2021/12/03 06:02:04;;;;;;;73.13;24.88;;;3.60;99.90;;;;;;4993018;28;20073;-80
2021/12/03 06:04:30;;;;;;;71.82;25.10;;;3.60;99.90;;;;;;4994055;28;20129;-81
2021/12/03 06:06:56;;;;;;;74.57;25.20;;;3.70;99.90;;;;;;4994728;28;20471;-82
2021/12/03 06:09:22;;;;;;;72.43;25.45;;;3.70;99.90;;;;;;4994398;28;20141;-83
2021/12/03 06:11:48;;;;;;;97.68;30.50;;;3.70;99.90;;;;;;4993672;28;20033;-82
2021/12/03 06:14:14;;;;;;;99.13;29.98;;;3.60;99.90;;;;;;4994879;28;20026;-81
2021/12/03 06:16:39;;;;;;;83.00;27.38;;;3.60;99.90;;;;;;4992841;28;20018;-80
2021/12/03 06:19:05;;;;;;;89.70;27.75;;;3.60;99.90;;;;;;4992459;28;20025;-78
2021/12/03 06:21:31;;;;;;;62.28;23.83;;;3.70;99.90;;;;;;4993182;28;20093;-82
2021/12/03 06:23:56;;;;;;;89.65;29.85;;;3.70;99.90;;;;;;4992790;28;20505;-79
2021/12/03 06:26:22;;;;;;;90.07;24.52;;;3.70;99.90;;;;;;4993624;28;20042;-81
2021/12/03 06:28:48;;;;;;;82.55;26.75;;;3.70;99.90;;;;;;4992710;28;20072;-80
2021/12/03 06:31:14;;;;;;;72.78;25.17;;;3.70;99.90;;;;;;4993945;28;20034;-80
2021/12/03 06:33:40;;;;;;;85.70;28.60;;;3.70;99.90;;;;;;4992246;28;20024;-80
2021/12/03 06:36:06;;;;;;;83.63;28.20;;;3.80;99.90;;;;;;4992592;28;20125;-81
2021/12/03 06:38:33;;;;;;;86.00;28.38;;;3.70;99.90;;;;;;4992564;28;20029;-81
2021/12/03 06:41:00;;;;;;;78.80;25.10;;;3.70;99.90;;;;;;4992278;28;20486;-81
2021/12/03 06:43:26;;;;;;;97.55;28.77;;;3.70;99.90;;;;;;4993449;28;20027;-82
2021/12/03 06:45:52;;;;;;;63.42;23.65;;;3.70;99.90;;;;;;4991870;28;20046;-81
2021/12/03 06:48:18;;;;;;;79.90;26.95;;;3.70;99.90;;;;;;4994356;28;20149;-80
2021/12/03 06:50:45;;;;;;;78.82;28.13;;;3.70;99.90;;;;;;4992324;28;20030;-80
2021/12/03 06:53:14;;;;;;;80.50;24.98;;;3.70;99.90;;;;;;4992421;28;20041;-80
2021/12/03 06:58:16;;;;;;;76.45;25.92;;;3.70;99.90;;;;;;4993561;28;20034;-80
2021/12/03 07:00:43;;;;;;;71.22;23.23;;;3.80;99.90;;;;;;4992383;28;20125;-81
2021/12/03 07:03:09;;;;;;;83.50;27.00;;;3.80;99.90;;;;;;4993411;28;20026;-80
2021/12/03 07:05:34;;;;;;;92.10;26.33;;;3.80;99.90;;;;;;4993454;28;20038;-80
2021/12/03 07:08:00;;;;;;;78.03;26.25;;;3.80;99.90;;;;;;4993513;28;20069;-80
2021/12/03 07:10:26;;;;;;;71.65;23.75;;;3.70;99.90;;;;;;4993359;28;20389;-81
2021/12/03 07:12:52;;;;;;;76.03;25.48;;;3.80;99.90;;;;;;4992326;28;20521;-80
2021/12/03 07:15:17;;;;;;;72.38;24.58;;;3.80;99.90;;;;;;4994630;28;20038;-81
2021/12/03 07:17:44;;;;;;;63.83;22.13;;;3.70;99.90;;;;;;4995249;28;20029;-80
2021/12/03 07:20:10;;;;;;;47.60;17.00;;;3.70;99.90;;;;;;4994843;28;20030;-80
2021/12/03 07:22:36;;;;;;;52.72;18.92;;;3.80;99.90;;;;;;4996824;28;20575;-80
2021/12/03 07:25:03;;;;;;;59.63;22.08;;;3.80;99.90;;;;;;4995558;28;20065;-80
2021/12/03 07:27:29;;;;;;;54.83;20.38;;;3.70;99.90;;;;;;4995656;28;20019;-80
2021/12/03 07:29:55;;;;;;;54.42;21.58;;;3.70;99.90;;;;;;4997033;28;20033;-80
2021/12/03 07:32:23;;;;;;;60.30;21.25;;;3.80;99.90;;;;;;4995552;28;20072;-80
2021/12/03 07:34:49;;;;;;;53.13;19.48;;;3.70;99.90;;;;;;4995210;28;20019;-81
2021/12/03 07:37:15;;;;;;;52.63;18.30;;;3.70;99.90;;;;;;4995397;28;20459;-80
2021/12/03 07:39:41;;;;;;;47.10;18.17;;;3.70;99.90;;;;;;4995132;28;20029;-81
2021/12/03 07:42:07;;;;;;;45.65;18.73;;;3.80;99.90;;;;;;4995776;28;20054;-81
2021/12/03 07:44:33;;;;;;;48.47;17.02;;;3.70;99.90;;;;;;4995844;28;20050;-80
2021/12/03 07:46:59;;;;;;;40.38;16.65;;;3.70;99.90;;;;;;4995107;28;20164;-80
2021/12/03 07:49:26;;;;;;;45.30;16.30;;;3.70;99.90;;;;;;4995171;28;20103;-81
2021/12/03 07:51:52;;;;;;;43.25;15.52;;;3.70;99.90;;;;;;4995211;28;20030;-80
2021/12/03 07:54:18;;;;;;;42.13;16.77;;;3.70;99.90;;;;;;4995091;28;20418;-80
2021/12/03 07:56:45;;;;;;;36.08;16.65;;;3.80;99.90;;;;;;4994576;28;20489;-80
2021/12/03 07:59:11;;;;;;;39.58;15.13;;;3.80;99.90;;;;;;4996030;28;20105;-80
2021/12/03 08:01:40;;;;;;;42.53;14.82;;;3.80;99.90;;;;;;4995584;28;20502;-80
2021/12/03 08:04:05;;;;;;;38.05;13.70;;;3.70;99.90;;;;;;4994740;28;20439;-79
2021/12/03 08:06:31;;;;;;;31.92;13.20;;;3.80;99.90;;;;;;4994970;28;20061;-83
2021/12/03 08:08:57;;;;;;;30.98;13.40;;;3.80;99.90;;;;;;4994563;28;20022;-80
2021/12/03 08:11:23;;;;;;;26.35;12.73;;;3.80;99.90;;;;;;4994967;28;20149;-80
2021/12/03 08:13:48;;;;;;;29.80;13.55;;;3.80;99.90;;;;;;4996357;28;20085;-81
2021/12/03 08:16:14;;;;;;;30.42;11.23;;;3.80;99.90;;;;;;4995627;28;20380;-80
2021/12/03 08:18:40;;;;;;;32.28;12.10;;;3.80;99.90;;;;;;4995186;28;20341;-82
2021/12/03 08:21:06;;;;;;;23.58;11.48;;;3.70;99.90;;;;;;4994368;28;20038;-81
2021/12/03 08:23:32;;;;;;;22.52;10.23;;;3.80;99.90;;;;;;4996012;28;20041;-83
2021/12/03 08:25:58;;;;;;;30.77;10.00;;;3.80;99.90;;;;;;4994657;28;20018;-80
2021/12/03 08:28:24;;;;;;;21.25;9.27;;;3.80;99.90;;;;;;4994490;28;20023;-80
2021/12/03 08:30:49;;;;;;;21.23;9.52;;;3.80;99.90;;;;;;4995584;28;20034;-81
2021/12/03 08:33:16;;;;;;;19.23;8.82;;;3.90;99.90;;;;;;4996658;28;20018;-80
2021/12/03 08:35:41;;;;;;;22.23;8.57;;;4.00;99.90;;;;;;4994194;28;20438;-80
2021/12/03 08:38:07;;;;;;;27.60;9.13;;;4.00;99.90;;;;;;4996194;28;20061;-80
2021/12/03 08:40:34;;;;;;;25.17;9.73;;;4.00;99.90;;;;;;4994554;28;20038;-81
2021/12/03 08:42:59;;;;;;;20.05;8.45;;;4.00;99.90;;;;;;4995516;28;20029;-81
2021/12/03 08:45:25;;;;;;;20.17;9.18;;;4.00;99.90;;;;;;4994270;28;20043;-80
2021/12/03 08:47:55;;;;;;;21.48;8.43;;;4.00;99.90;;;;;;4994490;28;20073;-80
2021/12/03 08:50:32;;;;;;;24.45;9.40;;;4.00;99.90;;;;;;4996195;28;20023;-81
2021/12/03 08:55:39;;;;;;;26.52;9.55;;;4.00;99.90;;;;;;4996340;28;20030;-81
2021/12/03 08:58:06;;;;;;;22.20;8.93;;;4.00;99.90;;;;;;4995434;28;20068;-81
2021/12/03 09:00:33;;;;;;;17.08;8.60;;;4.00;99.90;;;;;;4993719;28;20030;-80
2021/12/03 09:02:59;;;;;;;24.30;7.95;;;4.00;99.90;;;;;;4995805;28;20023;-80
2021/12/03 09:05:29;;;;;;;21.80;8.10;;;4.10;99.90;;;;;;4994685;28;20045;-80
2021/12/03 09:07:55;;;;;;;13.32;7.15;;;4.10;99.90;;;;;;4994773;28;20030;-80
2021/12/03 09:10:21;;;;;;;18.75;7.13;;;4.10;99.90;;;;;;4993613;28;20241;-81
2021/12/03 09:12:47;;;;;;;13.70;6.65;;;4.20;99.90;;;;;;4994608;28;20034;-80
2021/12/03 09:15:16;;;;;;;17.98;7.88;;;4.20;99.90;;;;;;4993737;28;20030;-81
2021/12/03 09:17:52;;;;;;;19.38;7.63;;;4.20;99.90;;;;;;4994488;28;20026;-82
2021/12/03 09:22:52;;;;;;;15.30;7.20;;;4.30;99.90;;;;;;4994763;28;20122;-82
2021/12/03 09:25:31;;;;;;;19.52;7.07;;;4.30;99.90;;;;;;4994089;28;20470;-81
2021/12/03 09:27:59;;;;;;;15.95;7.28;;;4.30;99.90;;;;;;4993479;28;20058;-81
2021/12/03 09:30:25;;;;;;;14.63;6.70;;;4.30;99.90;;;;;;4994542;28;20514;-81
2021/12/03 09:32:55;;;;;;;17.67;7.82;;;4.30;99.90;;;;;;4992869;28;20117;-81
2021/12/03 09:35:23;;;;;;;22.38;7.88;;;4.30;99.90;;;;;;4993394;28;20395;-80
2021/12/03 09:37:49;;;;;;;15.02;6.15;;;4.30;99.90;;;;;;4994420;28;20030;-81
2021/12/03 09:40:20;;;;;;;14.10;6.35;;;4.30;99.90;;;;;;4993316;28;20482;-81
2021/12/03 09:42:47;;;;;;;19.42;7.53;;;4.30;99.90;;;;;;4991639;28;20536;-79
2021/12/03 09:45:13;;;;;;;16.70;7.57;;;4.30;99.90;;;;;;4994103;28;20100;-81
2021/12/03 09:47:39;;;;;;;13.85;5.43;;;4.30;99.90;;;;;;4994136;28;20018;-82
2021/12/03 09:50:12;;;;;;;16.35;5.30;;;4.30;99.90;;;;;;4993900;28;20030;-81
2021/12/03 09:53:02;;;;;;;16.60;5.95;;;4.40;99.90;;;;;;4994672;28;20071;-83
2021/12/03 09:55:29;;;;;;;17.70;5.45;;;4.40;99.90;;;;;;4992883;28;20022;-82
2021/12/03 10:03:15;;;;;;;12.52;5.18;;;4.40;99.90;;;;;;4993940;28;20037;-80
2021/12/03 10:14:58;;;;;;;12.93;5.35;;;4.50;99.90;;;;;;4994479;28;20040;-80
2021/12/03 10:19:57;;;;;;;21.65;5.35;;;4.50;99.90;;;;;;4993318;28;20065;-80
2021/12/03 10:25:19;;;;;;;;;;;4.60;99.90;;;;;;4994406;28;20037;-81
2021/12/03 10:38:24;;;;;;;15.38;4.50;;;4.50;99.90;;;;;;4993367;28;20073;-80
2021/12/03 10:50:42;;;;;;;13.20;4.43;;;4.60;99.90;;;;;;4993240;28;20049;-80
2021/12/03 10:53:27;;;;;;;11.75;4.47;;;4.60;99.90;;;;;;4991608;28;20026;-81
2021/12/03 11:07:54;;;;;;;14.30;4.70;;;4.60;99.90;;;;;;4995845;28;20030;-80
2021/12/03 11:50:19;;;;;;;16.02;6.60;;;4.90;99.90;;;;;;4997397;28;20387;-81
2021/12/03 13:06:53;;;;;;;11.52;4.93;;;5.60;99.90;;;;;;4992799;28;20033;-80
2021/12/03 14:37:10;;;;;;;6.97;3.72;;;5.50;99.90;;;;;;5001511;28;20092;-81
2021/12/03 14:42:26;;;;;;;7.65;3.55;;;5.40;99.90;;;;;;5000243;28;20074;-81
2021/12/03 14:45:12;;;;;;;7.68;3.55;;;5.40;99.90;;;;;;4998781;28;20042;-80
2021/12/03 14:55:31;;;;;;;6.82;3.42;;;5.30;99.90;;;;;;5000067;28;20093;-79
2021/12/03 14:58:29;;;;;;;7.32;4.07;;;5.30;99.90;;;;;;4998723;28;20117;-82
2021/12/03 15:01:41;;;;;;;10.38;4.38;;;5.30;99.90;;;;;;5001165;28;20040;-81
2021/12/03 15:09:45;;;;;;;9.13;3.83;;;5.10;99.90;;;;;;4998228;28;20121;-81
2021/12/03 15:25:49;;;;;;;7.40;3.97;;;5.00;99.90;;;;;;5000197;28;20379;-80
2021/12/03 15:31:05;;;;;;;8.75;4.60;;;5.00;99.90;;;;;;4999901;28;20170;-83
2021/12/03 15:36:06;;;;;;;11.35;4.30;;;5.00;99.90;;;;;;4999617;28;20026;-81
2021/12/03 16:21:28;;;;;;;11.65;5.70;;;4.90;99.90;;;;;;4997102;28;20061;-82
2021/12/03 16:24:49;;;;;;;8.68;5.60;;;5.00;99.90;;;;;;4996301;28;20049;-81
2021/12/03 16:26:49;;;;;;;11.00;5.75;;;4.90;99.90;;;;;;4995462;28;20478;-82
2021/12/03 16:53:41;;;;;;;;;;;5.00;99.90;;;;;;4995425;28;20117;-82
2021/12/03 16:56:18;;;;;;;14.50;5.95;;;5.00;99.90;;;;;;4994130;28;19905;-81
2021/12/03 16:58:44;;;;;;;15.55;7.60;;;5.00;99.90;;;;;;4993934;28;20465;-82
2021/12/03 17:01:31;;;;;;;10.80;6.40;;;5.00;99.90;;;;;;4993898;28;20051;-81
2021/12/03 17:04:19;;;;;;;12.60;6.05;;;5.00;99.90;;;;;;4994117;28;20041;-81
2021/12/03 17:07:24;;;;;;;10.05;6.50;;;5.00;99.90;;;;;;4994867;28;20120;-82
2021/12/03 17:55:15;;;;;;;10.30;5.90;;;5.20;99.90;;;;;;4994614;28;20040;-82
2021/12/03 18:00:24;;;;;;;10.50;6.60;;;5.30;99.90;;;;;;4994241;28;20121;-83
2021/12/03 18:02:53;;;;;;;9.35;5.82;;;5.30;99.90;;;;;;4994968;28;20026;-80
2021/12/03 18:05:33;;;;;;;9.15;6.38;;;5.30;99.90;;;;;;4992230;28;20536;-82
2021/12/03 18:08:38;;;;;;;8.67;5.73;;;5.30;99.90;;;;;;4992713;28;20117;-80
2021/12/03 18:13:58;;;;;;;10.27;6.03;;;5.40;99.90;;;;;;4994755;28;19912;-81
2021/12/03 18:53:57;;;;;;;10.57;6.72;;;5.50;99.90;;;;;;4994510;28;20041;-82
2021/12/03 18:56:43;;;;;;;12.82;7.05;;;5.50;99.90;;;;;;4994238;28;20037;-83
2021/12/03 18:59:09;;;;;;;13.18;6.85;;;5.50;99.90;;;;;;4992644;28;20023;-83
2021/12/03 19:01:37;;;;;;;12.95;7.75;;;5.50;99.90;;;;;;4994274;28;20034;-82
2021/12/03 19:04:18;;;;;;;11.75;7.70;;;5.50;99.90;;;;;;4993868;28;20093;-83
2021/12/03 19:09:39;;;;;;;13.98;7.88;;;5.50;99.90;;;;;;4993265;28;20034;-83
2021/12/03 19:12:10;;;;;;;13.63;8.05;;;5.50;99.90;;;;;;4992470;28;20455;-83
2021/12/03 19:14:39;;;;;;;13.80;8.32;;;5.50;99.90;;;;;;4992908;28;20486;-83
2021/12/03 19:17:08;;;;;;;14.77;8.20;;;5.50;99.90;;;;;;4997431;28;20026;-82
2021/12/03 19:19:40;;;;;;;13.35;8.70;;;5.60;99.90;;;;;;4996056;28;20114;-83
2021/12/03 19:22:06;;;;;;;12.73;8.00;;;5.50;99.90;;;;;;4996334;28;20027;-82
2021/12/03 19:24:32;;;;;;;13.82;8.02;;;5.50;99.90;;;;;;4995864;28;20030;-82
2021/12/03 19:26:58;;;;;;;13.57;8.45;;;5.50;99.90;;;;;;4995973;28;20076;-82
2021/12/03 19:29:24;;;;;;;12.57;8.70;;;5.50;99.90;;;;;;4995944;28;20446;-83
2021/12/03 19:31:52;;;;;;;12.65;8.32;;;5.50;99.90;;;;;;4997232;28;20030;-82
2021/12/03 19:34:25;;;;;;;12.70;8.10;;;5.50;99.90;;;;;;4996054;28;20352;-82
2021/12/03 19:36:52;;;;;;;15.13;8.63;;;5.50;99.90;;;;;;4997263;28;20069;-82
2021/12/03 19:39:19;;;;;;;13.65;8.07;;;5.50;99.90;;;;;;4995678;28;20403;-82
2021/12/03 19:44:22;;;;;;;13.55;8.60;;;5.40;99.90;;;;;;4996674;28;20041;-82
2021/12/03 19:46:50;;;;;;;16.52;9.13;;;5.30;99.90;;;;;;4995814;28;20049;-82
2021/12/03 19:49:21;;;;;;;15.02;9.23;;;5.30;99.90;;;;;;4995675;28;20023;-82
2021/12/03 19:51:52;;;;;;;14.75;9.27;;;5.30;99.90;;;;;;4996888;28;20033;-83
2021/12/03 19:54:19;;;;;;;14.55;8.43;;;5.20;99.90;;;;;;4997166;28;20382;-83
2021/12/03 19:56:46;;;;;;;13.32;8.77;;;5.20;99.90;;;;;;4995103;28;20022;-84
2021/12/03 19:59:12;;;;;;;15.23;9.18;;;5.20;99.90;;;;;;4996912;28;20066;-83
2021/12/03 20:01:39;;;;;;;14.52;7.93;;;5.20;99.90;;;;;;4997157;28;20041;-83
2021/12/03 20:04:07;;;;;;;14.77;8.45;;;5.20;99.90;;;;;;4997321;28;20030;-83
2021/12/03 20:06:33;;;;;;;18.70;9.40;;;5.20;99.90;;;;;;4995970;28;20033;-84
2021/12/03 20:09:02;;;;;;;14.90;9.52;;;5.20;99.90;;;;;;4995824;28;20109;-83
2021/12/03 20:12:13;;;;;;;15.07;8.50;;;5.20;99.90;;;;;;4996871;28;20033;-83
2021/12/03 20:14:19;;;;;;;14.65;8.38;;;5.20;99.90;;;;;;4995795;28;20034;-84
2021/12/03 20:19:21;;;;;;;14.75;8.35;;;5.10;99.90;;;;;;4996802;28;20037;-83
2021/12/03 20:22:00;;;;;;;15.98;8.73;;;5.20;99.90;;;;;;4996844;28;20084;-82
2021/12/03 20:24:47;;;;;;;16.25;8.98;;;5.20;99.90;;;;;;4995684;28;20019;-82
2021/12/03 20:27:16;;;;;;;12.50;7.53;;;5.20;99.90;;;;;;4995708;28;20498;-82
2021/12/03 20:30:09;;;;;;;12.55;7.97;;;5.30;99.90;;;;;;4996170;28;20015;-83